Terminal Aerodrome Forecast
Issued by NWS Paducah, KY

Home | Current Version | Previous Version | Text Only | Print | Product List | Glossary Off
Versions: 1 2 3 4 5 6 7 8 9 10 11 12 13 14 15 16

000
FTUS43 KPAH 282300
TAFPAH
TAF
KPAH 282330Z 2900/2924 19008KT P6SM FEW150
     FM290300 17007KT P6SM SCT030 WS020/22045KT
     FM291000 19008G15KT P6SM BKN020 WS020/22050KT
     FM291500 20013G20KT 6SM -DZ BR BKN015=

USA.gov is the U.S. government's official web portal to all federal, state and local government web resources and services.